sensor_id;sensor_type;location;lat;lon;timestamp;P1;durP1;ratioP1;P2;durP2;ratioP2
1106;SDS011;540;49.448;8.612;2023-02-01T00:02:12;4.65;;;2.72;;
1106;SDS011;540;49.448;8.612;2023-02-01T00:04:40;4.53;;;2.45;;
1106;SDS011;540;49.448;8.612;2023-02-01T00:07:08;3.92;;;2.50;;
1106;SDS011;540;49.448;8.612;2023-02-01T00:09:39;3.42;;;2.38;;
1106;SDS011;540;49.448;8.612;2023-02-01T00:12:08;4.57;;;2.50;;
1106;SDS011;540;49.448;8.612;2023-02-01T00:14:36;3.97;;;2.90;;
1106;SDS011;540;49.448;8.612;2023-02-01T00:17:04;5.88;;;3.25;;
1106;SDS011;540;49.448;8.612;2023-02-01T00:19:33;5.03;;;2.45;;
1106;SDS011;540;49.448;8.612;2023-02-01T00:22:01;5.45;;;2.88;;
1106;SDS011;540;49.448;8.612;2023-02-01T00:24:29;4.88;;;2.75;;
1106;SDS011;540;49.448;8.612;2023-02-01T00:26:57;5.72;;;2.78;;
1106;SDS011;540;49.448;8.612;2023-02-01T00:29:26;4.78;;;3.05;;
1106;SDS011;540;49.448;8.612;2023-02-01T00:31:53;5.05;;;2.72;;
1106;SDS011;540;49.448;8.612;2023-02-01T00:34:21;8.75;;;3.83;;
1106;SDS011;540;49.448;8.612;2023-02-01T00:36:49;6.07;;;2.88;;
1106;SDS011;540;49.448;8.612;2023-02-01T00:39:17;5.35;;;2.58;;
1106;SDS011;540;49.448;8.612;2023-02-01T00:41:45;4.13;;;2.80;;
1106;SDS011;540;49.448;8.612;2023-02-01T00:44:12;4.47;;;2.92;;
1106;SDS011;540;49.448;8.612;2023-02-01T00:46:42;9.23;;;3.30;;
1106;SDS011;540;49.448;8.612;2023-02-01T00:49:10;5.43;;;3.20;;
1106;SDS011;540;49.448;8.612;2023-02-01T00:51:38;5.93;;;3.50;;
1106;SDS011;540;49.448;8.612;2023-02-01T00:54:06;5.03;;;3.45;;
1106;SDS011;540;49.448;8.612;2023-02-01T00:56:34;6.53;;;3.35;;
1106;SDS011;540;49.448;8.612;2023-02-01T00:59:02;5.57;;;3.15;;
1106;SDS011;540;49.448;8.612;2023-02-01T01:01:29;6.93;;;3.20;;
1106;SDS011;540;49.448;8.612;2023-02-01T01:03:59;8.80;;;3.45;;
1106;SDS011;540;49.448;8.612;2023-02-01T01:06:28;7.05;;;3.60;;
1106;SDS011;540;49.448;8.612;2023-02-01T01:08:58;6.40;;;3.40;;
1106;SDS011;540;49.448;8.612;2023-02-01T01:11:28;5.95;;;3.28;;
1106;SDS011;540;49.448;8.612;2023-02-01T01:13:58;6.05;;;3.20;;
1106;SDS011;540;49.448;8.612;2023-02-01T01:16:27;6.35;;;3.45;;
1106;SDS011;540;49.448;8.612;2023-02-01T01:18:56;6.75;;;4.15;;
1106;SDS011;540;49.448;8.612;2023-02-01T01:21:26;7.88;;;3.38;;
1106;SDS011;540;49.448;8.612;2023-02-01T01:23:54;6.57;;;3.50;;
1106;SDS011;540;49.448;8.612;2023-02-01T01:26:23;5.38;;;3.25;;
1106;SDS011;540;49.448;8.612;2023-02-01T01:28:54;4.95;;;2.97;;
1106;SDS011;540;49.448;8.612;2023-02-01T01:31:22;4.78;;;2.92;;
1106;SDS011;540;49.448;8.612;2023-02-01T01:33:51;4.63;;;3.00;;
1106;SDS011;540;49.448;8.612;2023-02-01T01:36:21;7.72;;;2.97;;
1106;SDS011;540;49.448;8.612;2023-02-01T01:38:49;5.68;;;2.63;;
1106;SDS011;540;49.448;8.612;2023-02-01T01:41:18;4.40;;;2.67;;
1106;SDS011;540;49.448;8.612;2023-02-01T01:43:49;6.00;;;3.28;;
1106;SDS011;540;49.448;8.612;2023-02-01T01:46:20;5.00;;;3.03;;
1106;SDS011;540;49.448;8.612;2023-02-01T01:48:50;7.13;;;2.75;;
1106;SDS011;540;49.448;8.612;2023-02-01T01:51:24;4.82;;;2.97;;
1106;SDS011;540;49.448;8.612;2023-02-01T01:53:56;4.97;;;2.63;;
1106;SDS011;540;49.448;8.612;2023-02-01T01:56:27;6.18;;;3.25;;
1106;SDS011;540;49.448;8.612;2023-02-01T01:58:58;5.97;;;2.90;;
1106;SDS011;540;49.448;8.612;2023-02-01T02:01:26;7.13;;;3.63;;
1106;SDS011;540;49.448;8.612;2023-02-01T02:03:55;4.93;;;2.58;;
1106;SDS011;540;49.448;8.612;2023-02-01T02:06:28;6.07;;;3.40;;
1106;SDS011;540;49.448;8.612;2023-02-01T02:09:02;5.22;;;3.08;;
1106;SDS011;540;49.448;8.612;2023-02-01T02:11:32;6.50;;;3.30;;
1106;SDS011;540;49.448;8.612;2023-02-01T02:14:00;6.22;;;2.60;;
1106;SDS011;540;49.448;8.612;2023-02-01T02:16:38;5.78;;;2.97;;
1106;SDS011;540;49.448;8.612;2023-02-01T02:19:20;4.30;;;2.90;;
1106;SDS011;540;49.448;8.612;2023-02-01T02:22:18;6.13;;;3.30;;
1106;SDS011;540;49.448;8.612;2023-02-01T02:28:03;6.40;;;3.17;;
1106;SDS011;540;49.448;8.612;2023-02-01T02:30:45;6.15;;;3.30;;
1106;SDS011;540;49.448;8.612;2023-02-01T02:33:34;5.07;;;3.13;;
1106;SDS011;540;49.448;8.612;2023-02-01T02:36:15;4.32;;;2.55;;
1106;SDS011;540;49.448;8.612;2023-02-01T02:38:48;5.93;;;3.33;;
1106;SDS011;540;49.448;8.612;2023-02-01T02:41:20;6.93;;;3.70;;
1106;SDS011;540;49.448;8.612;2023-02-01T02:44:13;5.72;;;3.08;;
1106;SDS011;540;49.448;8.612;2023-02-01T02:47:08;6.82;;;3.90;;
1106;SDS011;540;49.448;8.612;2023-02-01T02:52:42;5.38;;;3.08;;
1106;SDS011;540;49.448;8.612;2023-02-01T02:55:33;9.63;;;3.70;;
1106;SDS011;540;49.448;8.612;2023-02-01T02:58:04;6.28;;;3.30;;
1106;SDS011;540;49.448;8.612;2023-02-01T03:00:51;7.28;;;3.40;;
1106;SDS011;540;49.448;8.612;2023-02-01T03:03:39;6.53;;;3.28;;
1106;SDS011;540;49.448;8.612;2023-02-01T03:06:26;6.30;;;3.83;;
1106;SDS011;540;49.448;8.612;2023-02-01T03:08:54;7.45;;;3.45;;
1106;SDS011;540;49.448;8.612;2023-02-01T03:11:25;6.35;;;3.63;;
1106;SDS011;540;49.448;8.612;2023-02-01T03:14:14;8.02;;;3.45;;
1106;SDS011;540;49.448;8.612;2023-02-01T03:16:45;7.88;;;3.13;;
1106;SDS011;540;49.448;8.612;2023-02-01T03:19:19;8.48;;;2.70;;
1106;SDS011;540;49.448;8.612;2023-02-01T03:21:52;7.22;;;3.30;;
1106;SDS011;540;49.448;8.612;2023-02-01T03:24:23;11.52;;;3.47;;
1106;SDS011;540;49.448;8.612;2023-02-01T03:27:01;5.00;;;3.00;;
1106;SDS011;540;49.448;8.612;2023-02-01T03:29:34;6.32;;;2.78;;
1106;SDS011;540;49.448;8.612;2023-02-01T03:32:07;5.55;;;3.20;;
1106;SDS011;540;49.448;8.612;2023-02-01T03:34:36;13.77;;;4.05;;
1106;SDS011;540;49.448;8.612;2023-02-01T03:37:06;7.22;;;3.38;;
1106;SDS011;540;49.448;8.612;2023-02-01T03:39:39;6.75;;;3.35;;
1106;SDS011;540;49.448;8.612;2023-02-01T03:42:10;6.68;;;3.13;;
1106;SDS011;540;49.448;8.612;2023-02-01T03:44:42;6.03;;;2.60;;
1106;SDS011;540;49.448;8.612;2023-02-01T03:47:17;6.20;;;3.28;;
1106;SDS011;540;49.448;8.612;2023-02-01T03:49:49;6.18;;;3.35;;
1106;SDS011;540;49.448;8.612;2023-02-01T03:52:22;6.93;;;3.50;;
1106;SDS011;540;49.448;8.612;2023-02-01T03:54:55;8.35;;;3.42;;
1106;SDS011;540;49.448;8.612;2023-02-01T03:57:26;6.20;;;3.42;;
1106;SDS011;540;49.448;8.612;2023-02-01T04:00:03;9.48;;;3.95;;
1106;SDS011;540;49.448;8.612;2023-02-01T04:02:33;15.85;;;5.03;;
1106;SDS011;540;49.448;8.612;2023-02-01T04:05:01;8.10;;;3.80;;
1106;SDS011;540;49.448;8.612;2023-02-01T04:07:31;7.82;;;3.63;;
1106;SDS011;540;49.448;8.612;2023-02-01T04:09:59;7.88;;;3.28;;
1106;SDS011;540;49.448;8.612;2023-02-01T04:12:27;9.98;;;3.47;;
1106;SDS011;540;49.448;8.612;2023-02-01T04:14:54;8.63;;;4.03;;
1106;SDS011;540;49.448;8.612;2023-02-01T04:17:22;5.70;;;3.65;;
1106;SDS011;540;49.448;8.612;2023-02-01T04:19:50;12.48;;;5.22;;
1106;SDS011;540;49.448;8.612;2023-02-01T04:22:20;7.18;;;3.92;;
1106;SDS011;540;49.448;8.612;2023-02-01T04:24:49;10.32;;;4.35;;
1106;SDS011;540;49.448;8.612;2023-02-01T04:27:17;7.50;;;3.70;;
1106;SDS011;540;49.448;8.612;2023-02-01T04:29:45;8.80;;;5.05;;
1106;SDS011;540;49.448;8.612;2023-02-01T04:32:13;9.98;;;5.03;;
1106;SDS011;540;49.448;8.612;2023-02-01T04:34:42;13.70;;;4.88;;
1106;SDS011;540;49.448;8.612;2023-02-01T04:37:09;8.88;;;4.38;;
1106;SDS011;540;49.448;8.612;2023-02-01T04:39:37;8.20;;;4.75;;
1106;SDS011;540;49.448;8.612;2023-02-01T04:42:06;9.50;;;5.07;;
1106;SDS011;540;49.448;8.612;2023-02-01T04:44:34;8.32;;;4.70;;
1106;SDS011;540;49.448;8.612;2023-02-01T04:47:05;13.13;;;4.53;;
1106;SDS011;540;49.448;8.612;2023-02-01T04:49:33;9.10;;;5.20;;
1106;SDS011;540;49.448;8.612;2023-02-01T04:52:00;11.77;;;4.80;;
1106;SDS011;540;49.448;8.612;2023-02-01T04:54:29;10.32;;;4.93;;
1106;SDS011;540;49.448;8.612;2023-02-01T04:56:56;7.80;;;4.40;;
1106;SDS011;540;49.448;8.612;2023-02-01T04:59:26;13.60;;;4.55;;
1106;SDS011;540;49.448;8.612;2023-02-01T05:01:54;10.68;;;4.50;;
1106;SDS011;540;49.448;8.612;2023-02-01T05:04:22;12.18;;;4.57;;
1106;SDS011;540;49.448;8.612;2023-02-01T05:06:50;7.45;;;4.15;;
1106;SDS011;540;49.448;8.612;2023-02-01T05:09:18;15.35;;;5.43;;
1106;SDS011;540;49.448;8.612;2023-02-01T05:11:47;8.48;;;5.50;;
1106;SDS011;540;49.448;8.612;2023-02-01T05:14:34;7.53;;;3.90;;
1106;SDS011;540;49.448;8.612;2023-02-01T05:17:02;7.90;;;4.10;;
1106;SDS011;540;49.448;8.612;2023-02-01T05:19:30;6.53;;;3.90;;
1106;SDS011;540;49.448;8.612;2023-02-01T05:21:58;9.27;;;3.88;;
1106;SDS011;540;49.448;8.612;2023-02-01T05:24:26;9.32;;;4.38;;
1106;SDS011;540;49.448;8.612;2023-02-01T05:26:54;10.48;;;3.97;;
1106;SDS011;540;49.448;8.612;2023-02-01T05:29:21;8.52;;;3.65;;
1106;SDS011;540;49.448;8.612;2023-02-01T05:31:50;10.13;;;4.43;;
1106;SDS011;540;49.448;8.612;2023-02-01T05:34:18;8.48;;;3.70;;
1106;SDS011;540;49.448;8.612;2023-02-01T05:36:46;8.45;;;4.03;;
1106;SDS011;540;49.448;8.612;2023-02-01T05:39:14;6.15;;;3.92;;
1106;SDS011;540;49.448;8.612;2023-02-01T05:41:41;12.65;;;4.60;;
1106;SDS011;540;49.448;8.612;2023-02-01T05:44:09;12.23;;;4.35;;
1106;SDS011;540;49.448;8.612;2023-02-01T05:46:37;6.47;;;4.13;;
1106;SDS011;540;49.448;8.612;2023-02-01T05:49:07;6.28;;;3.50;;
1106;SDS011;540;49.448;8.612;2023-02-01T05:51:34;7.68;;;3.65;;
1106;SDS011;540;49.448;8.612;2023-02-01T05:54:02;7.18;;;4.03;;
1106;SDS011;540;49.448;8.612;2023-02-01T05:56:30;12.43;;;4.25;;
1106;SDS011;540;49.448;8.612;2023-02-01T05:58:58;5.40;;;3.40;;
1106;SDS011;540;49.448;8.612;2023-02-01T06:01:25;10.75;;;4.13;;
1106;SDS011;540;49.448;8.612;2023-02-01T06:03:53;8.23;;;3.22;;
1106;SDS011;540;49.448;8.612;2023-02-01T06:06:22;8.35;;;4.03;;
1106;SDS011;540;49.448;8.612;2023-02-01T06:08:50;6.47;;;3.70;;
1106;SDS011;540;49.448;8.612;2023-02-01T06:11:18;11.20;;;3.78;;
1106;SDS011;540;49.448;8.612;2023-02-01T06:13:57;9.02;;;4.75;;
1106;SDS011;540;49.448;8.612;2023-02-01T06:16:25;8.40;;;4.05;;
1106;SDS011;540;49.448;8.612;2023-02-01T06:18:53;13.80;;;4.20;;
1106;SDS011;540;49.448;8.612;2023-02-01T06:21:20;12.45;;;3.53;;
1106;SDS011;540;49.448;8.612;2023-02-01T06:23:50;6.85;;;4.25;;
1106;SDS011;540;49.448;8.612;2023-02-01T06:26:18;8.25;;;3.92;;
1106;SDS011;540;49.448;8.612;2023-02-01T06:28:46;9.05;;;4.78;;
1106;SDS011;540;49.448;8.612;2023-02-01T06:31:14;9.77;;;4.30;;
1106;SDS011;540;49.448;8.612;2023-02-01T06:33:42;16.98;;;8.05;;
1106;SDS011;540;49.448;8.612;2023-02-01T06:36:10;8.32;;;5.28;;
1106;SDS011;540;49.448;8.612;2023-02-01T06:38:40;13.00;;;5.18;;
1106;SDS011;540;49.448;8.612;2023-02-01T06:41:08;9.07;;;4.90;;
1106;SDS011;540;49.448;8.612;2023-02-01T06:43:37;8.93;;;5.28;;
1106;SDS011;540;49.448;8.612;2023-02-01T06:46:05;11.07;;;5.07;;
1106;SDS011;540;49.448;8.612;2023-02-01T06:48:34;8.93;;;4.85;;
1106;SDS011;540;49.448;8.612;2023-02-01T06:51:02;17.15;;;4.93;;
1106;SDS011;540;49.448;8.612;2023-02-01T06:53:30;14.05;;;6.63;;
1106;SDS011;540;49.448;8.612;2023-02-01T06:56:01;13.38;;;5.32;;
1106;SDS011;540;49.448;8.612;2023-02-01T06:58:30;12.27;;;4.57;;
1106;SDS011;540;49.448;8.612;2023-02-01T07:01:03;7.93;;;4.30;;
1106;SDS011;540;49.448;8.612;2023-02-01T07:03:32;9.35;;;5.30;;
1106;SDS011;540;49.448;8.612;2023-02-01T07:06:00;6.28;;;4.10;;
1106;SDS011;540;49.448;8.612;2023-02-01T07:08:28;10.93;;;4.07;;
1106;SDS011;540;49.448;8.612;2023-02-01T07:11:01;10.77;;;4.70;;
1106;SDS011;540;49.448;8.612;2023-02-01T07:13:30;8.50;;;4.63;;
1106;SDS011;540;49.448;8.612;2023-02-01T07:15:58;11.10;;;4.55;;
1106;SDS011;540;49.448;8.612;2023-02-01T07:18:26;8.95;;;4.15;;
1106;SDS011;540;49.448;8.612;2023-02-01T07:20:55;10.45;;;5.03;;
1106;SDS011;540;49.448;8.612;2023-02-01T07:23:23;18.23;;;5.68;;
1106;SDS011;540;49.448;8.612;2023-02-01T07:25:52;12.70;;;5.95;;
1106;SDS011;540;49.448;8.612;2023-02-01T07:28:22;22.88;;;9.13;;
1106;SDS011;540;49.448;8.612;2023-02-01T07:30:50;26.08;;;10.13;;
1106;SDS011;540;49.448;8.612;2023-02-01T07:33:18;22.02;;;8.90;;
1106;SDS011;540;49.448;8.612;2023-02-01T07:35:47;16.85;;;6.45;;
1106;SDS011;540;49.448;8.612;2023-02-01T07:38:18;22.40;;;7.88;;
1106;SDS011;540;49.448;8.612;2023-02-01T07:40:47;15.05;;;7.72;;
1106;SDS011;540;49.448;8.612;2023-02-01T07:43:15;18.88;;;7.32;;
1106;SDS011;540;49.448;8.612;2023-02-01T07:45:49;14.82;;;5.88;;
1106;SDS011;540;49.448;8.612;2023-02-01T07:48:18;14.52;;;7.50;;
1106;SDS011;540;49.448;8.612;2023-02-01T07:50:46;18.02;;;6.03;;
1106;SDS011;540;49.448;8.612;2023-02-01T07:53:14;17.23;;;5.88;;
1106;SDS011;540;49.448;8.612;2023-02-01T07:55:41;11.30;;;5.45;;
1106;SDS011;540;49.448;8.612;2023-02-01T07:58:09;10.70;;;5.03;;
1106;SDS011;540;49.448;8.612;2023-02-01T08:00:37;9.60;;;4.82;;
1106;SDS011;540;49.448;8.612;2023-02-01T08:03:24;10.35;;;4.68;;
1106;SDS011;540;49.448;8.612;2023-02-01T08:05:53;12.07;;;3.95;;
1106;SDS011;540;49.448;8.612;2023-02-01T08:08:21;13.02;;;4.03;;
1106;SDS011;540;49.448;8.612;2023-02-01T08:10:49;13.88;;;4.82;;
1106;SDS011;540;49.448;8.612;2023-02-01T08:13:17;13.85;;;4.53;;
1106;SDS011;540;49.448;8.612;2023-02-01T08:15:45;10.95;;;4.95;;
1106;SDS011;540;49.448;8.612;2023-02-01T08:18:12;6.00;;;2.85;;
1106;SDS011;540;49.448;8.612;2023-02-01T08:20:43;5.78;;;2.53;;
1106;SDS011;540;49.448;8.612;2023-02-01T08:23:12;9.45;;;2.50;;
1106;SDS011;540;49.448;8.612;2023-02-01T08:25:39;7.45;;;2.13;;
1106;SDS011;540;49.448;8.612;2023-02-01T08:28:07;7.55;;;2.08;;
1106;SDS011;540;49.448;8.612;2023-02-01T08:30:36;10.05;;;1.98;;
1106;SDS011;540;49.448;8.612;2023-02-01T08:33:05;13.93;;;3.17;;
1106;SDS011;540;49.448;8.612;2023-02-01T08:35:34;9.13;;;2.40;;
1106;SDS011;540;49.448;8.612;2023-02-01T08:38:10;8.23;;;2.75;;
1106;SDS011;540;49.448;8.612;2023-02-01T08:40:38;11.00;;;3.15;;
1106;SDS011;540;49.448;8.612;2023-02-01T08:43:07;12.98;;;4.40;;
1106;SDS011;540;49.448;8.612;2023-02-01T08:45:35;6.30;;;3.20;;
1106;SDS011;540;49.448;8.612;2023-02-01T08:48:03;13.43;;;3.85;;
1106;SDS011;540;49.448;8.612;2023-02-01T08:50:31;8.85;;;3.70;;
1106;SDS011;540;49.448;8.612;2023-02-01T08:52:58;9.30;;;3.88;;
1106;SDS011;540;49.448;8.612;2023-02-01T08:55:28;10.98;;;3.55;;
1106;SDS011;540;49.448;8.612;2023-02-01T08:57:55;19.85;;;4.00;;
1106;SDS011;540;49.448;8.612;2023-02-01T09:00:23;7.78;;;3.47;;
1106;SDS011;540;49.448;8.612;2023-02-01T09:02:53;9.70;;;3.58;;
1106;SDS011;540;49.448;8.612;2023-02-01T09:05:23;11.02;;;4.70;;
1106;SDS011;540;49.448;8.612;2023-02-01T09:08:13;14.77;;;4.68;;
1106;SDS011;540;49.448;8.612;2023-02-01T09:10:44;10.75;;;3.65;;
1106;SDS011;540;49.448;8.612;2023-02-01T09:13:14;9.88;;;3.47;;
1106;SDS011;540;49.448;8.612;2023-02-01T09:15:44;17.55;;;4.68;;
1106;SDS011;540;49.448;8.612;2023-02-01T09:18:13;16.25;;;4.07;;
1106;SDS011;540;49.448;8.612;2023-02-01T09:20:43;16.63;;;2.70;;
1106;SDS011;540;49.448;8.612;2023-02-01T09:23:13;13.55;;;3.92;;
1106;SDS011;540;49.448;8.612;2023-02-01T09:25:44;13.30;;;3.95;;
1106;SDS011;540;49.448;8.612;2023-02-01T09:28:17;13.60;;;3.65;;
1106;SDS011;540;49.448;8.612;2023-02-01T09:30:47;16.25;;;3.83;;
1106;SDS011;540;49.448;8.612;2023-02-01T09:33:17;8.27;;;3.38;;
1106;SDS011;540;49.448;8.612;2023-02-01T09:35:48;13.52;;;2.75;;
1106;SDS011;540;49.448;8.612;2023-02-01T09:38:18;9.05;;;3.22;;
1106;SDS011;540;49.448;8.612;2023-02-01T09:40:50;6.63;;;2.70;;
1106;SDS011;540;49.448;8.612;2023-02-01T09:46:16;16.38;;;4.10;;
1106;SDS011;540;49.448;8.612;2023-02-01T09:48:52;4.07;;;2.47;;
1106;SDS011;540;49.448;8.612;2023-02-01T09:51:24;15.90;;;3.17;;
1106;SDS011;540;49.448;8.612;2023-02-01T09:53:58;8.60;;;2.17;;
1106;SDS011;540;49.448;8.612;2023-02-01T09:56:35;10.70;;;2.30;;
1106;SDS011;540;49.448;8.612;2023-02-01T09:59:19;11.23;;;2.80;;
1106;SDS011;540;49.448;8.612;2023-02-01T10:01:53;12.65;;;2.80;;
1106;SDS011;540;49.448;8.612;2023-02-01T10:04:21;12.52;;;2.70;;
1106;SDS011;540;49.448;8.612;2023-02-01T10:06:52;7.07;;;2.58;;
1106;SDS011;540;49.448;8.612;2023-02-01T10:12:35;13.40;;;3.17;;
1106;SDS011;540;49.448;8.612;2023-02-01T10:15:24;13.50;;;3.92;;
1106;SDS011;540;49.448;8.612;2023-02-01T10:18:10;8.63;;;2.88;;
1106;SDS011;540;49.448;8.612;2023-02-01T10:20:56;13.63;;;2.60;;
1106;SDS011;540;49.448;8.612;2023-02-01T10:23:40;10.98;;;2.17;;
1106;SDS011;540;49.448;8.612;2023-02-01T10:26:22;9.65;;;2.40;;
1106;SDS011;540;49.448;8.612;2023-02-01T10:28:52;8.07;;;2.10;;
1106;SDS011;540;49.448;8.612;2023-02-01T10:31:22;14.80;;;2.97;;
1106;SDS011;540;49.448;8.612;2023-02-01T10:33:56;16.15;;;3.20;;
1106;SDS011;540;49.448;8.612;2023-02-01T10:36:26;13.18;;;2.88;;
1106;SDS011;540;49.448;8.612;2023-02-01T10:38:56;14.45;;;3.72;;
1106;SDS011;540;49.448;8.612;2023-02-01T10:41:27;9.73;;;3.85;;
1106;SDS011;540;49.448;8.612;2023-02-01T10:44:02;9.77;;;3.08;;
1106;SDS011;540;49.448;8.612;2023-02-01T10:46:31;10.23;;;3.05;;
1106;SDS011;540;49.448;8.612;2023-02-01T10:49:02;11.52;;;2.85;;
1106;SDS011;540;49.448;8.612;2023-02-01T10:51:35;9.68;;;2.40;;
1106;SDS011;540;49.448;8.612;2023-02-01T10:54:11;10.98;;;3.92;;
1106;SDS011;540;49.448;8.612;2023-02-01T10:56:43;13.07;;;2.97;;
1106;SDS011;540;49.448;8.612;2023-02-01T10:59:16;14.18;;;2.78;;
1106;SDS011;540;49.448;8.612;2023-02-01T11:01:46;13.18;;;2.22;;
1106;SDS011;540;49.448;8.612;2023-02-01T11:04:14;16.00;;;3.28;;
1106;SDS011;540;49.448;8.612;2023-02-01T11:06:44;10.30;;;2.15;;
1106;SDS011;540;49.448;8.612;2023-02-01T11:09:16;17.92;;;2.92;;
1106;SDS011;540;49.448;8.612;2023-02-01T11:11:54;14.43;;;3.75;;
1106;SDS011;540;49.448;8.612;2023-02-01T11:14:34;12.85;;;2.20;;
1106;SDS011;540;49.448;8.612;2023-02-01T11:17:15;10.80;;;2.80;;
1106;SDS011;540;49.448;8.612;2023-02-01T11:19:55;11.27;;;3.07;;
1106;SDS011;540;49.448;8.612;2023-02-01T11:22:25;12.67;;;2.47;;
1106;SDS011;540;49.448;8.612;2023-02-01T11:24:55;13.95;;;2.38;;
1106;SDS011;540;49.448;8.612;2023-02-01T11:27:24;17.30;;;3.55;;
1106;SDS011;540;49.448;8.612;2023-02-01T11:29:55;10.73;;;2.30;;
1106;SDS011;540;49.448;8.612;2023-02-01T11:32:27;18.00;;;3.55;;
1106;SDS011;540;49.448;8.612;2023-02-01T11:34:56;11.00;;;2.63;;
1106;SDS011;540;49.448;8.612;2023-02-01T11:37:27;13.23;;;3.03;;
1106;SDS011;540;49.448;8.612;2023-02-01T11:39:57;9.40;;;2.30;;
1106;SDS011;540;49.448;8.612;2023-02-01T11:42:27;13.85;;;2.50;;
1106;SDS011;540;49.448;8.612;2023-02-01T11:47:47;17.63;;;3.75;;
1106;SDS011;540;49.448;8.612;2023-02-01T11:50:22;12.05;;;3.08;;
1106;SDS011;540;49.448;8.612;2023-02-01T11:52:59;15.60;;;2.40;;
1106;SDS011;540;49.448;8.612;2023-02-01T11:55:53;9.30;;;3.08;;
1106;SDS011;540;49.448;8.612;2023-02-01T11:58:39;12.68;;;2.63;;
1106;SDS011;540;49.448;8.612;2023-02-01T12:01:42;16.33;;;3.40;;
1106;SDS011;540;49.448;8.612;2023-02-01T12:04:30;13.90;;;2.88;;
1106;SDS011;540;49.448;8.612;2023-02-01T12:07:14;15.60;;;3.63;;
1106;SDS011;540;49.448;8.612;2023-02-01T12:10:00;14.82;;;2.95;;
1106;SDS011;540;49.448;8.612;2023-02-01T12:12:39;7.68;;;2.90;;
1106;SDS011;540;49.448;8.612;2023-02-01T12:21:37;10.73;;;2.53;;
1106;SDS011;540;49.448;8.612;2023-02-01T12:24:31;12.63;;;3.20;;
1106;SDS011;540;49.448;8.612;2023-02-01T12:27:14;14.25;;;2.92;;
1106;SDS011;540;49.448;8.612;2023-02-01T12:30:02;12.10;;;3.50;;
1106;SDS011;540;49.448;8.612;2023-02-01T12:32:51;8.75;;;2.92;;
1106;SDS011;540;49.448;8.612;2023-02-01T12:35:41;8.55;;;2.10;;
1106;SDS011;540;49.448;8.612;2023-02-01T12:38:23;14.85;;;4.03;;
1106;SDS011;540;49.448;8.612;2023-02-01T12:41:08;14.23;;;4.00;;
1106;SDS011;540;49.448;8.612;2023-02-01T12:43:51;20.38;;;5.15;;
1106;SDS011;540;49.448;8.612;2023-02-01T12:46:24;16.75;;;3.55;;
1106;SDS011;540;49.448;8.612;2023-02-01T12:48:57;15.00;;;3.78;;
1106;SDS011;540;49.448;8.612;2023-02-01T12:51:29;16.75;;;3.90;;
1106;SDS011;540;49.448;8.612;2023-02-01T12:54:03;14.90;;;3.45;;
1106;SDS011;540;49.448;8.612;2023-02-01T12:56:40;16.88;;;3.85;;
1106;SDS011;540;49.448;8.612;2023-02-01T12:59:13;15.43;;;3.95;;
1106;SDS011;540;49.448;8.612;2023-02-01T13:01:49;7.57;;;2.60;;
1106;SDS011;540;49.448;8.612;2023-02-01T13:04:25;10.27;;;2.53;;
1106;SDS011;540;49.448;8.612;2023-02-01T13:06:59;11.90;;;2.85;;
1106;SDS011;540;49.448;8.612;2023-02-01T13:09:34;26.85;;;5.50;;
1106;SDS011;540;49.448;8.612;2023-02-01T13:12:08;10.55;;;2.85;;
1106;SDS011;540;49.448;8.612;2023-02-01T13:14:42;17.83;;;3.15;;
1106;SDS011;540;49.448;8.612;2023-02-01T13:17:14;7.53;;;2.13;;
1106;SDS011;540;49.448;8.612;2023-02-01T13:19:45;13.52;;;2.40;;
1106;SDS011;540;49.448;8.612;2023-02-01T13:22:19;15.60;;;2.90;;
1106;SDS011;540;49.448;8.612;2023-02-01T13:24:53;10.32;;;2.65;;
1106;SDS011;540;49.448;8.612;2023-02-01T13:27:25;17.55;;;4.13;;
1106;SDS011;540;49.448;8.612;2023-02-01T13:29:56;11.02;;;2.15;;
1106;SDS011;540;49.448;8.612;2023-02-01T13:32:32;10.52;;;3.15;;
1106;SDS011;540;49.448;8.612;2023-02-01T13:35:58;13.70;;;2.58;;
1106;SDS011;540;49.448;8.612;2023-02-01T13:38:44;15.07;;;1.95;;
1106;SDS011;540;49.448;8.612;2023-02-01T13:41:30;23.60;;;3.67;;
1106;SDS011;540;49.448;8.612;2023-02-01T13:44:00;18.35;;;2.95;;
1106;SDS011;540;49.448;8.612;2023-02-01T13:46:30;13.38;;;2.17;;
1106;SDS011;540;49.448;8.612;2023-02-01T13:49:13;17.75;;;2.80;;
1106;SDS011;540;49.448;8.612;2023-02-01T13:51:49;22.05;;;2.63;;
1106;SDS011;540;49.448;8.612;2023-02-01T13:54:25;10.93;;;2.33;;
1106;SDS011;540;49.448;8.612;2023-02-01T13:56:57;10.02;;;2.58;;
1106;SDS011;540;49.448;8.612;2023-02-01T13:59:36;16.90;;;4.80;;
1106;SDS011;540;49.448;8.612;2023-02-01T14:05:04;8.90;;;1.90;;
1106;SDS011;540;49.448;8.612;2023-02-01T14:07:35;10.43;;;1.67;;
1106;SDS011;540;49.448;8.612;2023-02-01T14:13:11;6.90;;;1.90;;
1106;SDS011;540;49.448;8.612;2023-02-01T14:15:41;8.65;;;1.60;;
1106;SDS011;540;49.448;8.612;2023-02-01T14:18:49;8.48;;;2.20;;
1106;SDS011;540;49.448;8.612;2023-02-01T14:21:28;8.52;;;2.25;;
1106;SDS011;540;49.448;8.612;2023-02-01T14:23:59;9.27;;;2.20;;
1106;SDS011;540;49.448;8.612;2023-02-01T14:26:40;14.25;;;2.38;;
1106;SDS011;540;49.448;8.612;2023-02-01T14:29:21;10.82;;;1.70;;
1106;SDS011;540;49.448;8.612;2023-02-01T14:31:58;14.57;;;2.55;;
1106;SDS011;540;49.448;8.612;2023-02-01T14:34:31;8.02;;;2.13;;
1106;SDS011;540;49.448;8.612;2023-02-01T14:37:09;7.78;;;1.52;;
1106;SDS011;540;49.448;8.612;2023-02-01T14:39:52;14.60;;;2.17;;
1106;SDS011;540;49.448;8.612;2023-02-01T14:42:26;12.15;;;2.53;;
1106;SDS011;540;49.448;8.612;2023-02-01T14:51:00;10.45;;;2.35;;
1106;SDS011;540;49.448;8.612;2023-02-01T14:53:30;6.68;;;1.95;;
1106;SDS011;540;49.448;8.612;2023-02-01T14:56:04;13.15;;;2.42;;
1106;SDS011;540;49.448;8.612;2023-02-01T14:58:39;10.73;;;2.70;;
1106;SDS011;540;49.448;8.612;2023-02-01T15:01:17;11.50;;;2.08;;
1106;SDS011;540;49.448;8.612;2023-02-01T15:03:51;11.77;;;2.08;;
1106;SDS011;540;49.448;8.612;2023-02-01T15:06:24;5.70;;;2.17;;
1106;SDS011;540;49.448;8.612;2023-02-01T15:08:56;17.33;;;2.13;;
1106;SDS011;540;49.448;8.612;2023-02-01T15:11:26;12.35;;;2.13;;
1106;SDS011;540;49.448;8.612;2023-02-01T15:13:55;10.60;;;2.25;;
1106;SDS011;540;49.448;8.612;2023-02-01T15:16:25;16.70;;;2.15;;
1106;SDS011;540;49.448;8.612;2023-02-01T15:19:09;9.15;;;2.08;;
1106;SDS011;540;49.448;8.612;2023-02-01T15:21:45;10.25;;;1.95;;
1106;SDS011;540;49.448;8.612;2023-02-01T15:24:14;10.02;;;1.90;;
1106;SDS011;540;49.448;8.612;2023-02-01T15:26:47;7.88;;;2.10;;
1106;SDS011;540;49.448;8.612;2023-02-01T15:29:15;7.50;;;1.70;;
1106;SDS011;540;49.448;8.612;2023-02-01T15:31:47;6.00;;;2.00;;
1106;SDS011;540;49.448;8.612;2023-02-01T15:34:17;10.15;;;1.45;;
1106;SDS011;540;49.448;8.612;2023-02-01T15:36:46;10.68;;;2.10;;
1106;SDS011;540;49.448;8.612;2023-02-01T15:39:28;5.65;;;1.92;;
1106;SDS011;540;49.448;8.612;2023-02-01T15:41:58;10.32;;;1.80;;
1106;SDS011;540;49.448;8.612;2023-02-01T15:44:30;14.07;;;3.08;;
1106;SDS011;540;49.448;8.612;2023-02-01T15:47:07;9.35;;;1.80;;
1106;SDS011;540;49.448;8.612;2023-02-01T15:49:40;9.20;;;1.83;;
1106;SDS011;540;49.448;8.612;2023-02-01T15:52:14;12.43;;;2.28;;
1106;SDS011;540;49.448;8.612;2023-02-01T15:54:49;12.85;;;2.45;;
1106;SDS011;540;49.448;8.612;2023-02-01T15:57:19;7.88;;;2.47;;
1106;SDS011;540;49.448;8.612;2023-02-01T15:59:56;8.13;;;2.20;;
1106;SDS011;540;49.448;8.612;2023-02-01T16:02:29;7.38;;;2.33;;
1106;SDS011;540;49.448;8.612;2023-02-01T16:05:02;8.50;;;1.70;;
1106;SDS011;540;49.448;8.612;2023-02-01T16:07:32;13.55;;;1.80;;
1106;SDS011;540;49.448;8.612;2023-02-01T16:10:01;10.10;;;2.17;;
1106;SDS011;540;49.448;8.612;2023-02-01T16:12:46;15.30;;;2.28;;
1106;SDS011;540;49.448;8.612;2023-02-01T16:15:14;8.70;;;2.33;;
1106;SDS011;540;49.448;8.612;2023-02-01T16:17:43;8.85;;;2.03;;
1106;SDS011;540;49.448;8.612;2023-02-01T16:20:12;10.70;;;2.33;;
1106;SDS011;540;49.448;8.612;2023-02-01T16:22:40;11.82;;;2.80;;
1106;SDS011;540;49.448;8.612;2023-02-01T16:25:07;11.68;;;2.88;;
1106;SDS011;540;49.448;8.612;2023-02-01T16:27:35;7.60;;;2.08;;
1106;SDS011;540;49.448;8.612;2023-02-01T16:30:04;10.95;;;2.97;;